Time;durP1;ratioP1;P1;durP2;ratioP2;P2;SDS_P1;SDS_P2;PMS_P1;PMS_P2;Temp;Humidity;BMP_temperature;BMP_pressure;BME280_temperature;BME280_humidity;BME280_pressure;Samples;Min_cycle;Max_cycle;Signal;HPM_P1;HPM_P2
2022/05/24 00:01:19;;;;;;;3.47;2.80;;;17.00;93.00;;;16.20;83.46;96821.72;5068496;28;20551;-72
2022/05/24 00:03:48;;;;;;;3.30;2.80;;;17.10;92.80;;;16.12;83.29;96831.31;5073450;28;20491;-73
2022/05/24 00:06:16;;;;;;;4.23;2.60;;;17.10;92.50;;;16.22;83.53;96825.78;5085780;28;20461;-72
2022/05/24 00:08:43;;;;;;;4.93;3.23;;;17.10;92.80;;;16.29;82.35;96828.19;5088520;28;20546;-72
2022/05/24 00:11:11;;;;;;;4.77;2.40;;;17.20;92.50;;;16.29;82.97;96825.47;5083551;28;20479;-74
2022/05/24 00:13:38;;;;;;;5.97;2.87;;;17.20;92.40;;;16.12;82.22;96777.63;5085053;28;20456;-75
2022/05/24 00:16:05;;;;;;;5.83;3.00;;;17.20;92.20;;;16.10;83.03;96815.22;5075773;28;20542;-73
2022/05/24 00:18:33;;;;;;;7.03;2.93;;;17.10;92.30;;;16.16;83.77;96826.13;5084869;28;20514;-74
2022/05/24 00:21:05;;;;;;;7.13;3.20;;;17.10;92.70;;;16.19;83.77;96828.28;5084112;28;20958;-73
2022/05/24 00:23:34;;;;;;;6.50;3.20;;;17.10;92.60;;;15.83;83.78;96786.47;5075124;28;20529;-74
2022/05/24 00:26:04;;;;;;;7.40;2.90;;;17.10;92.70;;;16.17;84.04;96822.31;5078062;28;20811;-72
2022/05/24 00:28:34;;;;;;;5.07;3.07;;;17.10;92.90;;;16.29;82.98;96825.47;5087235;28;20814;-74
2022/05/24 00:31:01;;;;;;;5.23;3.43;;;17.20;92.40;;;16.12;83.55;96815.75;5083345;28;20491;-72
2022/05/24 00:33:31;;;;;;;3.83;3.43;;;17.10;92.50;;;16.28;83.46;96821.13;5085166;28;20494;-73
2022/05/24 00:35:58;;;;;;;3.77;2.80;;;17.20;92.70;;;16.21;83.68;96817.91;5086012;28;20435;-72
2022/05/24 00:38:36;;;;;;;4.73;2.93;;;17.10;92.70;;;16.19;83.48;96815.47;5088805;28;20439;-72
2022/05/24 00:41:16;;;;;;;3.90;2.97;;;17.10;92.70;;;16.16;84.33;96821.47;5088899;28;20450;-72
2022/05/24 00:43:50;;;;;;;6.97;3.47;;;17.10;93.00;;;16.27;83.39;96817.59;5081956;28;21015;-71
2022/05/24 00:46:22;;;;;;;8.73;3.17;;;17.10;92.90;;;16.25;84.06;96818.97;5075016;28;20464;-74
2022/05/24 00:48:57;;;;;;;5.50;3.63;;;17.20;92.90;;;16.33;83.46;96814.84;5080794;28;21030;-73
2022/05/24 00:51:31;;;;;;;5.50;3.30;;;17.20;92.70;;;16.38;83.16;96818.34;5080574;28;20482;-73
2022/05/24 00:53:59;;;;;;;5.77;3.60;;;17.20;92.60;;;16.42;82.87;96813.16;5096008;28;21019;-71
2022/05/24 00:56:43;;;;;;;4.33;3.40;;;17.30;92.50;;;16.36;83.11;96815.09;5072329;28;20448;-71
2022/05/24 00:59:19;;;;;;;6.23;3.67;;;17.30;92.40;;;16.45;83.06;96822.66;5095276;28;20447;-75
2022/05/24 01:01:47;;;;;;;4.40;3.47;;;17.30;92.50;;;16.31;83.21;96806.97;5093823;28;20953;-71
2022/05/24 01:04:19;;;;;;;4.17;3.33;;;17.30;92.40;;;16.26;83.16;96815.16;5076007;28;20497;-72
2022/05/24 01:06:47;;;;;;;6.23;3.90;;;17.20;92.60;;;16.52;82.56;96815.00;5089273;28;20462;-73
2022/05/24 01:09:22;;;;;;;6.23;4.13;;;17.30;92.40;;;16.00;83.18;96764.34;5078405;28;20463;-71
2022/05/24 01:11:53;;;;;;;3.43;3.00;;;17.30;92.40;;;16.35;83.13;96810.75;5089487;28;20557;-71
2022/05/24 01:14:23;;;;;;;4.60;3.00;;;17.20;92.60;;;16.29;83.38;96825.47;5073384;28;20519;-71
2022/05/24 01:16:52;;;;;;;5.93;4.13;;;17.20;92.50;;;16.30;83.74;96827.09;5079654;28;20861;-71
2022/05/24 01:19:33;;;;;;;4.77;3.10;;;17.20;92.90;;;16.41;83.26;96819.69;5079304;28;20457;-72
2022/05/24 01:22:16;;;;;;;4.97;3.30;;;17.20;92.70;;;16.45;82.79;96828.94;5075138;28;20467;-71
2022/05/24 01:24:51;;;;;;;7.17;3.90;;;17.30;92.50;;;16.36;83.33;96820.53;5078917;28;20538;-73
2022/05/24 01:27:20;;;;;;;5.23;3.43;;;17.30;92.60;;;16.40;83.04;96815.34;5072202;28;21059;-71
2022/05/24 01:29:47;;;;;;;5.20;4.23;;;17.30;92.50;;;16.27;83.96;96814.03;5069955;28;20462;-77
2022/05/24 01:37:43;;;;;;;6.93;3.80;;;17.30;92.40;;;16.40;83.24;96824.31;5079449;28;20452;-74
2022/05/24 01:40:11;;;;;;;4.87;3.50;;;17.30;92.50;;;16.53;82.53;96822.06;5076291;28;20452;-73
2022/05/24 01:42:40;;;;;;;4.13;3.60;;;17.30;92.40;;;16.39;83.38;96825.41;5078919;28;20485;-71
2022/05/24 01:45:15;;;;;;;6.17;3.90;;;17.30;92.40;;;16.43;82.47;96825.69;5072296;28;20456;-72
2022/05/24 01:47:46;;;;;;;6.87;3.83;;;17.30;92.20;;;16.36;83.01;96815.09;5094118;28;20948;-70
2022/05/24 01:50:17;;;;;;;5.53;4.20;;;17.30;92.20;;;16.35;83.32;96818.09;5081226;28;20532;-73
2022/05/24 01:52:52;;;;;;;6.23;4.10;;;17.20;92.50;;;16.31;83.65;96820.59;5077884;28;20553;-72
2022/05/24 01:55:25;;;;;;;5.93;4.00;;;17.20;92.50;;;16.36;83.29;96826.00;5075617;28;20495;-71
2022/05/24 01:57:58;;;;;;;5.50;3.90;;;17.20;92.60;;;16.39;82.86;96814.53;5076852;28;20471;-72
2022/05/24 02:00:25;;;;;;;8.67;4.10;;;17.30;92.60;;;16.34;83.37;96813.72;5076706;28;20546;-71
2022/05/24 02:02:52;;;;;;;4.40;4.00;;;17.30;92.50;;;16.32;83.34;96830.38;5082704;28;20459;-72
2022/05/24 02:05:31;;;;;;;4.90;4.20;;;17.30;92.70;;;16.39;83.03;96836.31;5083041;28;20455;-71
2022/05/24 02:07:59;;;;;;;5.63;3.90;;;17.30;92.90;;;16.34;83.35;96841.81;5097272;28;20484;-72
2022/05/24 02:10:28;;;;;;;6.10;4.57;;;17.20;92.80;;;16.26;83.80;96831.50;5083909;28;20460;-71
2022/05/24 02:13:01;;;;;;;5.67;4.13;;;17.20;93.00;;;16.31;84.16;96841.56;5082362;28;20468;-73
2022/05/24 02:15:32;;;;;;;4.40;4.00;;;17.20;93.10;;;16.47;83.31;96840.38;5080706;28;20502;-73
2022/05/24 02:18:05;;;;;;;5.53;4.27;;;17.20;93.00;;;16.43;83.58;96845.56;5082513;28;20459;-73
2022/05/24 02:20:36;;;;;;;9.33;4.57;;;17.20;93.10;;;16.39;83.97;96849.16;5083967;28;20491;-71
2022/05/24 02:23:04;;;;;;;5.43;4.53;;;17.30;93.40;;;16.26;86.95;96864.19;5080449;28;20549;-74
2022/05/24 02:25:37;;;;;;;5.73;5.20;;;17.20;95.10;;;15.91;89.72;96868.72;5081872;28;20471;-74
2022/05/24 02:28:09;;;;;;;5.70;4.77;;;17.00;97.40;;;15.73;91.35;96862.75;5089699;28;20504;-72
2022/05/24 02:30:40;;;;;;;8.00;4.87;;;16.70;99.90;;;15.51;92.26;96866.63;5095871;28;21026;-73
2022/05/24 02:33:07;;;;;;;6.50;5.37;;;16.50;99.90;;;15.35;93.19;96862.31;5086534;28;20475;-72
2022/05/24 02:35:34;;;;;;;5.30;4.80;;;16.30;99.90;;;15.33;92.94;96864.47;5069525;28;20443;-74
2022/05/24 02:38:02;;;;;;;4.93;4.53;;;16.30;99.90;;;15.27;94.72;96859.06;5074801;28;20493;-75
2022/05/24 02:43:15;;;;;;;5.90;4.67;;;16.10;99.90;;;15.11;95.16;96844.66;5078113;28;20459;-75
2022/05/24 02:45:42;;;;;;;6.10;4.97;;;16.10;99.90;;;14.96;97.04;96841.94;5085218;28;20516;-76
2022/05/24 02:48:11;;;;;;;7.07;5.30;;;16.00;99.90;;;15.05;97.29;96826.72;5089568;28;20454;-72
2022/05/24 02:50:38;;;;;;;4.67;4.27;;;16.00;99.90;;;14.89;95.38;96839.50;5077601;28;20511;-75
2022/05/24 02:53:06;;;;;;;5.60;4.50;;;15.90;99.90;;;14.85;97.17;96828.34;5084755;28;20475;-72
2022/05/24 02:55:33;;;;;;;4.87;4.40;;;15.80;99.90;;;14.83;97.27;96833.22;5077592;28;20581;-71
2022/05/24 02:58:01;;;;;;;7.00;5.10;;;15.80;99.90;;;14.79;97.96;96836.78;5080803;28;20472;-72
2022/05/24 03:00:30;;;;;;;4.70;4.10;;;15.80;99.90;;;14.80;97.50;96832.97;5074028;28;20987;-71
2022/05/24 03:02:58;;;;;;;5.67;3.93;;;15.80;99.90;;;14.83;97.96;96833.22;5076540;28;20549;-72
2022/05/24 03:05:27;;;;;;;4.93;4.60;;;15.80;99.90;;;14.92;97.29;96838.13;5070713;28;20466;-72
2022/05/24 03:10:40;;;;;;;4.00;3.70;;;15.80;99.90;;;14.87;97.67;96842.50;5070021;28;20462;-73
2022/05/24 03:15:55;;;;;;;4.97;3.87;;;15.80;99.90;;;14.89;95.54;96849.56;5076248;28;20463;-71
2022/05/24 03:18:23;;;;;;;3.60;3.27;;;15.80;99.90;;;14.87;95.24;96852.53;5077169;28;20521;-71
2022/05/24 03:20:50;;;;;;;10.27;3.30;;;15.80;99.90;;;14.85;93.93;96835.69;5069823;28;20632;-73
2022/05/24 03:23:18;;;;;;;4.10;3.70;;;15.80;99.90;;;14.94;93.72;96836.78;5082020;28;20451;-73
2022/05/24 03:25:45;;;;;;;4.00;3.60;;;15.90;99.90;;;14.91;94.93;96841.94;5076952;28;20469;-74
2022/05/24 03:28:13;;;;;;;4.53;3.73;;;15.90;99.90;;;14.88;94.82;96837.88;5089381;28;20459;-70
2022/05/24 03:30:43;;;;;;;3.97;3.67;;;15.90;99.90;;;14.74;95.57;96826.72;5075387;28;20550;-74
2022/05/24 03:33:13;;;;;;;3.93;3.53;;;15.80;99.90;;;14.94;94.92;96841.41;5086386;28;20480;-70
2022/05/24 03:35:41;;;;;;;3.90;3.20;;;15.90;99.90;;;14.91;94.33;96837.31;5082677;28;20977;-75
2022/05/24 03:38:09;;;;;;;3.60;3.20;;;15.80;99.90;;;14.89;93.94;96839.50;5080564;28;20556;-75
2022/05/24 03:40:37;;;;;;;3.90;3.60;;;15.90;99.90;;;15.03;94.15;96828.91;5084670;28;20533;-74
2022/05/24 03:43:11;;;;;;;4.10;3.70;;;15.90;99.90;;;15.08;94.14;96831.59;5084823;28;20867;-71
2022/05/24 03:45:41;;;;;;;4.17;3.83;;;16.00;99.90;;;15.00;94.31;96840.28;5070732;28;20810;-76
2022/05/24 03:48:09;;;;;;;3.83;3.50;;;16.00;99.90;;;15.00;93.70;96838.41;5076827;28;20466;-71
2022/05/24 03:50:37;;;;;;;4.03;3.73;;;15.90;99.90;;;14.83;93.76;96791.66;5076213;28;20462;-70
2022/05/24 03:53:05;;;;;;;3.97;3.20;;;16.00;99.90;;;15.03;92.01;96837.06;5076329;28;20480;-70
2022/05/24 03:55:32;;;;;;;3.83;3.53;;;16.00;99.70;;;15.06;91.35;96839.22;5071163;28;20856;-73
2022/05/24 03:58:02;;;;;;;3.40;3.10;;;16.00;99.00;;;15.08;92.18;96825.31;5081338;28;20466;-71
2022/05/24 04:00:33;;;;;;;4.60;3.70;;;16.00;99.90;;;15.13;90.81;96838.94;5083826;28;20946;-72
2022/05/24 04:03:01;;;;;;;3.73;3.43;;;16.10;98.40;;;15.32;90.12;96835.66;5082706;28;21029;-72
2022/05/24 04:05:29;;;;;;;3.80;3.50;;;16.20;98.30;;;15.21;90.55;96830.22;5079507;28;20459;-71
2022/05/24 04:07:58;;;;;;;3.90;3.60;;;16.20;98.10;;;15.27;90.40;96833.75;5071133;28;21150;-71
2022/05/24 04:10:27;;;;;;;6.93;4.00;;;16.20;97.90;;;15.23;90.76;96847.06;5074066;28;20979;-71
2022/05/24 04:12:54;;;;;;;5.90;3.60;;;16.20;97.70;;;15.28;91.48;96843.53;5086724;28;20464;-71
2022/05/24 04:15:23;;;;;;;6.13;4.77;;;16.20;98.60;;;15.39;91.13;96853.31;5077212;28;20506;-71
2022/05/24 04:17:51;;;;;;;4.43;4.03;;;16.30;98.80;;;15.19;90.44;96851.44;5073512;28;21096;-71
2022/05/24 04:20:18;;;;;;;5.60;3.80;;;16.20;97.60;;;15.31;90.82;96864.75;5079232;28;20968;-70
2022/05/24 04:22:45;;;;;;;4.60;4.20;;;16.20;98.00;;;15.32;90.42;96862.84;5081266;28;20470;-71
2022/05/24 04:25:15;;;;;;;4.30;4.00;;;16.20;97.60;;;15.40;90.01;96859.59;5079167;28;20546;-71
2022/05/24 04:27:42;;;;;;;4.83;4.30;;;16.40;98.10;;;15.49;90.00;96871.53;5082367;28;20462;-69
2022/05/24 04:30:12;;;;;;;4.50;4.20;;;16.40;98.20;;;15.46;90.46;96871.25;5085663;28;20505;-69
2022/05/24 04:32:40;;;;;;;7.53;4.80;;;16.40;98.10;;;15.49;89.98;96866.09;5083478;28;20474;-74
2022/05/24 04:35:08;;;;;;;5.60;4.80;;;16.40;97.20;;;15.49;89.67;96871.53;5075637;28;20556;-71
2022/05/24 04:37:35;;;;;;;5.47;4.97;;;16.50;97.50;;;15.58;88.90;96882.66;5068874;28;20455;-71
2022/05/24 04:40:07;;;;;;;5.53;3.67;;;16.50;96.70;;;15.89;87.48;96879.06;5087632;28;20453;-81
2022/05/24 04:42:34;;;;;;;7.27;3.50;;;16.60;96.00;;;16.08;85.66;96871.91;5076787;28;20469;-81
2022/05/24 04:45:06;;;;;;;5.60;3.77;;;16.90;94.80;;;16.21;83.51;96837.78;5076051;28;20466;-82
2022/05/24 04:47:35;;;;;;;4.43;3.40;;;17.20;93.20;;;16.86;81.79;96887.81;5091581;28;20529;-81
2022/05/24 04:50:07;;;;;;;3.60;3.33;;;17.40;92.50;;;16.76;81.21;96893.38;5074826;28;20534;-79
2022/05/24 04:52:39;;;;;;;4.70;3.13;;;17.60;90.90;;;16.94;80.19;96895.41;5097252;28;20451;-81
2022/05/24 04:55:10;;;;;;;4.37;3.23;;;17.70;90.80;;;17.21;79.10;96907.78;5084031;28;20463;-80
2022/05/24 04:57:39;;;;;;;4.20;3.03;;;18.00;90.20;;;17.32;77.43;96924.88;5080655;28;20483;-76
2022/05/24 05:00:13;;;;;;;3.53;2.57;;;18.10;89.00;;;17.54;76.38;96918.94;5087751;28;20466;-77
2022/05/24 05:02:40;;;;;;;4.80;3.40;;;18.40;88.30;;;17.28;75.72;96880.97;5087487;28;20523;-76
2022/05/24 05:05:09;;;;;;;6.20;3.20;;;18.50;87.80;;;17.60;76.78;96905.25;5083696;28;20541;-76
2022/05/24 05:07:37;;;;;;;15.50;4.87;;;18.50;88.10;;;17.58;80.24;96907.44;5083401;28;20512;-82
2022/05/24 05:10:05;;;;;;;5.40;3.40;;;18.40;91.20;;;17.35;75.79;96874.34;5078252;28;20455;-70
2022/05/24 05:12:32;;;;;;;4.00;3.00;;;18.40;87.50;;;16.95;77.38;96913.41;5077699;28;20452;-69
2022/05/24 05:15:00;;;;;;;4.50;3.47;;;18.10;87.50;;;16.89;78.08;96930.88;5084463;28;20507;-69
2022/05/24 05:17:27;;;;;;;3.80;3.33;;;17.80;88.00;;;16.42;80.27;96924.91;5085176;28;20620;-68
2022/05/24 05:19:55;;;;;;;4.33;4.03;;;17.60;89.20;;;16.19;81.93;96932.63;5084594;28;20514;-68
2022/05/24 05:22:23;;;;;;;5.50;4.40;;;17.30;90.40;;;16.22;80.80;96932.06;5082053;28;20535;-69
2022/05/24 05:24:51;;;;;;;4.30;3.90;;;17.20;90.40;;;16.21;79.60;96888.75;5081900;28;20451;-70
2022/05/24 05:27:18;;;;;;;5.17;4.23;;;17.30;90.20;;;16.56;79.16;96916.91;5093574;28;20462;-69
2022/05/24 05:32:32;;;;;;;5.77;4.23;;;17.40;90.40;;;16.64;78.30;96919.06;5091266;28;20458;-71
2022/05/24 05:35:00;;;;;;;4.43;4.00;;;17.40;89.10;;;16.53;77.91;96898.41;5081902;28;20526;-71
2022/05/24 05:37:30;;;;;;;5.23;4.73;;;17.50;88.70;;;16.52;77.80;96915.84;5082381;28;20460;-70
2022/05/24 05:39:58;;;;;;;6.33;4.70;;;17.40;88.40;;;16.87;77.05;96916.72;5080869;28;20676;-69
2022/05/24 05:42:25;;;;;;;8.40;3.83;;;17.60;88.40;;;16.21;77.93;96867.75;5082809;28;20486;-72
2022/05/24 05:44:53;;;;;;;4.73;4.17;;;17.50;88.20;;;16.81;77.18;96920.59;5081450;28;20458;-71
2022/05/24 05:47:20;;;;;;;3.57;3.37;;;17.60;87.90;;;16.54;78.19;96903.59;5088485;28;20547;-71
2022/05/24 05:49:48;;;;;;;4.23;3.93;;;17.50;88.10;;;16.63;77.44;96919.34;5080414;28;20468;-73
2022/05/24 05:52:16;;;;;;;4.70;4.03;;;17.50;87.80;;;16.75;77.65;96919.81;5074595;28;20537;-72
2022/05/24 05:54:43;;;;;;;4.63;4.20;;;17.70;88.20;;;16.63;77.36;96867.53;5069168;28;20818;-67
2022/05/24 05:57:12;;;;;;;6.17;3.40;;;17.70;88.40;;;17.40;75.45;96918.78;5072001;28;20475;-67
2022/05/24 05:59:39;;;;;;;3.83;3.53;;;18.00;87.50;;;17.42;74.61;96915.78;5070474;28;20630;-68
2022/05/24 06:02:07;;;;;;;4.30;4.00;;;18.20;86.50;;;17.44;73.68;96920.94;5067627;28;20491;-67
2022/05/24 06:04:35;;;;;;;7.33;4.13;;;18.20;86.00;;;17.42;73.54;96926.72;5080064;28;20458;-68
2022/05/24 06:07:04;;;;;;;5.87;3.93;;;18.20;85.40;;;17.53;73.23;96936.44;5075162;28;20484;-67
2022/05/24 06:09:32;;;;;;;3.90;3.50;;;18.30;85.50;;;17.15;73.53;96941.66;5080158;28;20542;-67
2022/05/24 06:11:59;;;;;;;3.77;3.47;;;18.20;84.70;;;17.06;74.06;96954.25;5074744;28;20481;-67
2022/05/24 06:14:26;;;;;;;3.80;3.50;;;18.10;85.00;;;17.08;75.19;96976.66;5080115;28;20490;-67
2022/05/24 06:16:53;;;;;;;5.37;3.90;;;18.00;85.70;;;16.92;74.92;96979.44;5079539;28;21034;-67
2022/05/24 06:19:21;;;;;;;4.43;4.03;;;17.90;85.50;;;16.86;75.79;96994.19;5083935;28;20554;-68
2022/05/24 06:21:47;;;;;;;5.30;3.80;;;17.80;85.90;;;16.92;75.99;97001.28;5073095;28;20470;-67
2022/05/24 06:24:16;;;;;;;3.80;3.50;;;17.80;86.40;;;16.85;75.46;96989.84;5088535;28;20534;-71
2022/05/24 06:26:43;;;;;;;3.97;3.57;;;17.80;85.90;;;16.53;76.55;96961.94;5084148;28;20461;-71
2022/05/24 06:29:11;;;;;;;4.70;3.80;;;17.70;86.60;;;16.43;76.86;96987.31;5082440;28;20526;-70
2022/05/24 06:31:38;;;;;;;3.70;3.40;;;17.40;86.30;;;16.89;75.80;96980.00;5086894;28;20454;-71
2022/05/24 06:34:05;;;;;;;4.60;4.10;;;17.60;86.50;;;17.05;74.45;96972.56;5089218;28;20471;-71
2022/05/24 06:36:33;;;;;;;4.53;4.13;;;17.80;85.70;;;16.88;75.61;96963.91;5090081;28;20821;-71
2022/05/24 06:39:00;;;;;;;4.00;3.70;;;17.90;85.70;;;17.47;72.44;96964.88;5087603;28;20532;-71
2022/05/24 06:41:28;;;;;;;4.27;3.87;;;18.20;85.00;;;17.30;72.75;96957.13;5083693;28;20482;-71
2022/05/24 06:43:55;;;;;;;3.83;3.53;;;18.20;84.30;;;17.68;71.25;96967.44;5082601;28;20458;-71
2022/05/24 06:46:23;;;;;;;6.20;4.07;;;18.50;84.10;;;17.46;71.58;96968.72;5088908;28;20449;-71
2022/05/24 06:48:50;;;;;;;3.63;3.43;;;18.40;83.60;;;17.27;72.30;96985.78;5095398;28;20464;-71
2022/05/24 06:51:21;;;;;;;4.13;3.83;;;18.30;83.80;;;17.48;71.15;96977.41;5098747;28;20454;-72
2022/05/24 06:53:50;;;;;;;4.60;4.20;;;18.40;83.30;;;17.42;71.76;96975.84;5083918;28;20563;-71
2022/05/24 06:56:18;;;;;;;4.23;3.93;;;18.30;83.60;;;17.50;70.81;96982.59;5078847;28;20454;-72
2022/05/24 06:58:47;;;;;;;6.23;4.20;;;18.40;83.20;;;17.69;71.12;96990.91;5084261;28;20569;-71
2022/05/24 07:04:00;;;;;;;5.00;4.57;;;18.70;82.80;;;17.54;70.50;96989.13;5113072;27;20794;-70
2022/05/24 07:06:27;;;;;;;5.03;4.03;;;18.60;82.70;;;17.34;71.41;96996.38;5097762;28;20543;-70
2022/05/24 07:08:55;;;;;;;4.00;3.70;;;18.30;82.80;;;16.97;72.99;96993.03;5096268;28;20459;-72
2022/05/24 07:11:23;;;;;;;4.80;4.50;;;18.10;83.50;;;17.02;73.15;96999.59;5078900;28;20460;-70
2022/05/24 07:13:54;;;;;;;4.90;4.50;;;18.00;84.00;;;16.97;75.30;97009.41;5086058;28;20478;-71
2022/05/24 07:16:21;;;;;;;5.33;4.93;;;18.00;85.30;;;16.93;76.33;97022.00;5088924;28;20926;-72
2022/05/24 07:18:48;;;;;;;5.03;4.73;;;17.90;85.80;;;16.75;77.52;97028.06;5090327;28;20483;-70
2022/05/24 07:21:16;;;;;;;5.10;4.70;;;17.80;86.70;;;16.96;76.64;97036.97;5088838;28;20539;-71
2022/05/24 07:23:43;;;;;;;5.07;4.57;;;17.80;87.00;;;16.93;77.03;97026.63;5080807;28;20554;-71
2022/05/24 07:26:15;;;;;;;5.43;4.97;;;17.80;87.00;;;16.55;78.34;97035.25;5080126;28;20540;-71
2022/05/24 07:28:42;;;;;;;5.37;4.97;;;17.70;88.10;;;16.66;76.55;97019.66;5090562;28;20455;-71
2022/05/24 07:31:11;;;;;;;5.20;4.80;;;17.60;86.80;;;16.97;75.56;97014.88;5081580;28;20501;-69
2022/05/24 07:33:39;;;;;;;5.07;4.60;;;17.70;86.50;;;16.77;76.13;97031.34;5069348;28;20986;-69
2022/05/24 07:36:08;;;;;;;5.00;4.47;;;17.70;86.30;;;16.85;75.89;97025.31;5079825;28;20572;-70
2022/05/24 07:38:37;;;;;;;5.27;4.87;;;17.70;86.30;;;16.82;76.93;97039.50;5087204;28;20462;-70
2022/05/24 07:46:36;;;;;;;4.87;4.50;;;17.70;85.90;;;17.00;74.86;97027.19;5077574;28;20490;-70
2022/05/24 07:49:03;;;;;;;5.70;5.30;;;17.70;86.10;;;17.26;74.10;97022.38;5074638;28;20451;-71
2022/05/24 07:51:31;;;;;;;8.83;4.90;;;17.90;85.70;;;17.45;73.51;97024.41;5075685;28;20545;-71
2022/05/24 07:53:58;;;;;;;5.67;5.17;;;18.20;85.30;;;17.85;71.73;97029.81;5072187;28;20476;-69
2022/05/24 07:56:25;;;;;;;5.30;4.90;;;18.50;84.80;;;18.02;71.26;97032.16;5071543;28;21044;-71
2022/05/24 07:58:53;;;;;;;5.27;4.77;;;18.80;84.30;;;17.89;70.69;97028.13;5091435;28;20550;-71
2022/05/24 08:01:20;;;;;;;5.77;4.70;;;18.80;83.30;;;18.23;70.13;97023.75;5068614;28;20466;-69
2022/05/24 08:03:49;;;;;;;5.20;4.67;;;18.90;83.50;;;17.75;70.49;97025.25;5077604;28;20563;-69
2022/05/24 08:06:17;;;;;;;4.40;4.10;;;18.80;82.60;;;17.64;70.51;97020.97;5069982;28;20456;-70
2022/05/24 08:08:44;;;;;;;7.00;4.80;;;18.80;82.30;;;17.97;70.24;97022.06;5071300;28;20453;-71
2022/05/24 08:11:13;;;;;;;4.87;4.47;;;18.90;82.60;;;18.73;67.30;97028.09;5070609;28;21228;-71
2022/05/24 08:13:40;;;;;;;5.07;4.57;;;19.40;82.00;;;19.13;65.77;97020.47;5068323;28;20471;-70
2022/05/24 08:16:07;;;;;;;4.70;4.30;;;19.70;81.10;;;19.03;65.60;97028.81;5070713;28;21057;-70
2022/05/24 08:18:34;;;;;;;6.10;4.00;;;19.90;80.40;;;18.82;65.07;96977.91;5081444;28;21012;-70
2022/05/24 08:21:03;;;;;;;4.53;4.20;;;20.00;79.90;;;19.36;64.85;97015.22;5071536;28;21022;-70
2022/05/24 08:23:33;;;;;;;4.00;3.63;;;20.10;79.90;;;19.49;64.18;97017.22;5078680;28;20452;-71
2022/05/24 08:26:02;;;;;;;4.00;3.67;;;20.20;79.50;;;19.48;64.88;97026.50;5066739;28;20539;-71
2022/05/24 08:28:30;;;;;;;4.30;4.00;;;20.40;79.50;;;19.40;64.56;97030.75;5079463;28;20492;-71
2022/05/24 08:30:57;;;;;;;6.03;4.23;;;20.30;79.30;;;19.98;62.59;97030.69;5071967;28;20578;-71
2022/05/24 08:33:25;;;;;;;4.33;3.80;;;20.60;78.80;;;20.29;61.65;97035.59;5071771;28;20583;-71
2022/05/24 08:35:54;;;;;;;4.00;3.43;;;20.90;78.20;;;20.31;60.75;97035.28;5070323;28;20562;-70
2022/05/24 08:38:24;;;;;;;4.00;3.70;;;21.20;76.90;;;19.66;62.41;97032.28;5069306;28;20474;-71
2022/05/24 08:40:52;;;;;;;4.03;3.73;;;20.70;76.90;;;19.92;62.73;97040.91;5065459;28;20468;-70
2022/05/24 08:43:47;;;;;;;3.50;3.30;;;20.70;77.80;;;20.76;60.68;97029.22;5070849;28;20493;-70
2022/05/24 08:49:08;;;;;;;4.60;4.20;;;21.40;76.20;;;20.36;60.21;97016.00;5080074;28;20456;-71
2022/05/24 08:51:41;;;;;;;3.77;3.40;;;21.40;75.20;;;20.20;60.64;97018.22;5083998;28;20457;-70
2022/05/24 08:54:13;;;;;;;5.93;5.33;;;21.10;75.20;;;20.33;60.53;97011.94;5069675;28;20542;-71
2022/05/24 08:56:47;;;;;;;4.67;3.57;;;21.20;75.60;;;20.50;59.64;97010.50;5069668;28;20538;-70
2022/05/24 08:59:20;;;;;;;3.73;3.37;;;21.20;75.00;;;20.28;60.22;97020.28;5077176;28;20822;-70
2022/05/24 09:01:49;;;;;;;3.57;3.10;;;21.10;75.10;;;19.78;61.26;97029.88;5074758;28;20568;-71
2022/05/24 09:04:17;;;;;;;3.90;3.60;;;20.80;75.00;;;19.07;63.74;97027.16;5072777;28;20484;-71
2022/05/24 09:06:53;;;;;;;3.70;3.00;;;20.30;76.00;;;18.88;65.25;97041.59;5082871;28;20829;-73
2022/05/24 09:09:46;;;;;;;3.40;3.20;;;19.90;77.30;;;18.79;66.00;97052.34;5077932;28;20463;-71
2022/05/24 09:12:31;;;;;;;4.10;3.80;;;19.70;78.20;;;18.15;68.17;97057.19;5080696;28;21516;-70
2022/05/24 09:15:15;;;;;;;3.97;3.70;;;19.30;79.00;;;18.09;69.10;97070.88;5079642;28;21065;-69
2022/05/24 09:18:03;;;;;;;3.73;3.43;;;19.10;79.90;;;17.53;70.23;97032.00;5078376;28;21210;-70
2022/05/24 09:20:36;;;;;;;4.27;3.87;;;18.80;81.00;;;17.83;70.90;97090.22;5072587;28;20555;-71
2022/05/24 09:23:11;;;;;;;3.93;3.63;;;18.80;81.60;;;17.87;72.77;97095.91;5087459;28;20462;-70
2022/05/24 09:25:54;;;;;;;4.07;3.77;;;18.70;82.80;;;17.19;76.32;97125.56;5069202;28;21139;-71
2022/05/24 09:28:46;;;;;;;1.87;1.77;;;18.40;85.00;;;14.84;76.57;97182.09;5078706;28;20484;-73
2022/05/24 09:31:22;;;;;;;4.47;1.83;;;16.90;82.00;;;13.88;82.98;97170.00;5069697;28;20462;-73
2022/05/24 09:33:57;;;;;;;7.37;1.50;;;15.40;88.40;;;13.43;84.51;97168.44;5079668;28;20459;-72
2022/05/24 09:36:35;;;;;;;1.63;1.13;;;14.80;90.80;;;13.23;83.68;97177.94;5075859;28;21292;-73
2022/05/24 09:39:07;;;;;;;1.30;1.13;;;14.50;90.80;;;13.09;85.20;97161.25;5094292;28;20461;-74
2022/05/24 09:41:34;;;;;;;2.07;1.20;;;14.30;92.10;;;13.19;85.95;97160.56;5089007;28;20971;-74
2022/05/24 09:44:14;;;;;;;1.20;1.10;;;14.30;93.20;;;13.35;84.09;97155.31;5091866;28;20444;-73
2022/05/24 09:46:43;;;;;;;1.30;1.20;;;14.40;91.90;;;13.59;83.05;97150.44;5083308;28;20489;-73
2022/05/24 09:49:24;;;;;;;2.83;1.20;;;14.60;91.70;;;13.99;83.66;97170.06;5079984;28;20466;-75
2022/05/24 09:51:56;;;;;;;1.93;1.40;;;14.90;92.20;;;14.06;82.74;97169.84;5080045;28;20544;-73
2022/05/24 09:54:26;;;;;;;3.10;1.80;;;15.10;91.20;;;14.47;83.54;97180.19;5075303;28;20483;-71
2022/05/24 09:57:03;;;;;;;4.63;1.50;;;15.40;92.20;;;14.62;81.67;97183.03;5090957;28;20460;-72
2022/05/24 09:59:34;;;;;;;2.10;1.77;;;15.60;90.80;;;15.15;79.86;97182.25;5083196;28;20548;-74
2022/05/24 10:02:02;;;;;;;4.63;1.60;;;16.00;89.90;;;15.81;77.31;97185.44;5076275;28;20447;-73
2022/05/24 10:04:35;;;;;;;1.33;1.10;;;16.60;87.40;;;16.13;77.24;97182.50;5071747;28;20473;-72
2022/05/24 10:07:08;;;;;;;2.20;1.33;;;17.00;86.80;;;16.40;72.73;97175.16;5069499;28;20459;-75
2022/05/24 10:10:07;;;;;;;3.23;1.77;;;17.40;83.80;;;16.42;73.97;97157.41;5081398;28;20449;-74
2022/05/24 10:13:02;;;;;;;1.20;1.10;;;17.40;84.20;;;16.74;72.00;97193.63;5077592;28;20544;-74
2022/05/24 10:15:37;;;;;;;2.40;1.10;;;17.80;83.80;;;16.51;70.55;97201.28;5093861;28;20927;-76
2022/05/24 10:18:54;;;;;;;1.30;1.20;;;17.60;82.10;;;16.46;72.53;97197.78;5081276;28;20455;-73
2022/05/24 10:21:30;;;;;;;1.33;1.23;;;17.50;82.90;;;16.55;75.70;97196.09;5081436;28;20485;-71
2022/05/24 10:24:09;;;;;;;3.93;1.17;;;17.60;85.30;;;17.17;71.67;97209.63;5090005;28;20458;-74
2022/05/24 10:26:51;;;;;;;1.50;1.10;;;17.80;84.10;;;17.43;71.72;97206.81;5104009;28;20486;-74
2022/05/24 10:29:38;;;;;;;1.67;1.33;;;18.10;83.10;;;17.06;68.42;97199.84;5081203;28;20468;-73
2022/05/24 10:38:17;;;;;;;2.17;0.90;;;18.10;81.60;;;16.69;69.19;97207.28;5078959;28;20479;-75
2022/05/24 10:38:20;;;;;;;4.00;2.70;;;17.60;81.00;;;16.79;71.76;97209.97;5076659;28;20453;-72
2022/05/24 10:41:05;;;;;;;4.73;1.40;;;17.80;82.00;;;16.95;68.81;97199.03;5074286;28;20555;-74
2022/05/24 10:43:50;;;;;;;1.47;0.90;;;17.90;81.20;;;16.75;66.65;97202.63;5080652;28;20462;-73
2022/05/24 10:46:23;;;;;;;1.43;0.67;;;17.90;79.30;;;15.72;67.28;97138.88;5082361;28;20461;-73
2022/05/24 10:49:06;;;;;;;1.23;0.83;;;17.30;77.70;;;16.06;66.66;97200.19;5083416;28;20491;-74
2022/05/24 10:51:39;;;;;;;2.00;1.20;;;17.20;77.70;;;15.87;67.16;97214.31;5090604;28;20455;-73
2022/05/24 10:54:13;;;;;;;0.80;0.80;;;17.00;78.00;;;15.98;66.76;97215.16;5091360;28;20447;-74
2022/05/24 10:56:45;;;;;;;0.80;0.80;;;17.00;77.10;;;16.33;65.60;97202.69;5080408;28;20460;-72
2022/05/24 10:59:28;;;;;;;1.10;1.00;;;17.20;76.80;;;16.50;64.99;97199.66;5080283;28;20513;-72
2022/05/24 11:02:00;;;;;;;0.80;0.80;;;17.50;76.70;;;17.07;63.69;97223.34;5079993;28;20629;-73
2022/05/24 11:04:42;;;;;;;1.80;1.20;;;17.80;76.40;;;17.63;63.12;97232.38;5078140;28;20933;-73
2022/05/24 11:07:18;;;;;;;1.90;1.57;;;18.40;76.00;;;17.95;64.16;97214.72;5075619;28;20546;-73